createdAt,value
2023-01-30T00:00:20.971Z,38.17
2023-01-30T00:00:57.814Z,37.07
2023-01-30T00:01:32.651Z,36.93
2023-01-30T00:02:04.377Z,36.47
2023-01-30T00:02:37.990Z,35.47
2023-01-30T00:03:09.659Z,34.50
2023-01-30T00:03:43.080Z,35.03
2023-01-30T00:04:17.147Z,36.33
2023-01-30T00:04:49.053Z,34.43
2023-01-30T00:05:20.715Z,34.30
2023-01-30T00:05:52.997Z,35.23
2023-01-30T00:06:31.431Z,35.30
2023-01-30T00:07:03.087Z,34.50
2023-01-30T00:07:34.705Z,35.00
2023-01-30T00:08:06.352Z,35.77
2023-01-30T00:08:38.743Z,34.67
2023-01-30T00:09:16.378Z,35.83
2023-01-30T00:09:55.166Z,36.00
2023-01-30T00:10:26.816Z,34.87
2023-01-30T00:11:06.920Z,36.17
2023-01-30T00:11:38.580Z,35.17
2023-01-30T00:12:13.062Z,35.57
2023-01-30T00:12:44.765Z,36.47
2023-01-30T00:13:17.001Z,36.77
2023-01-30T00:13:50.754Z,37.00
2023-01-30T00:14:22.484Z,37.40
2023-01-30T00:14:55.726Z,37.23
2023-01-30T00:15:28.890Z,36.20
2023-01-30T00:16:01.082Z,37.27
2023-01-30T00:16:34.036Z,36.57
2023-01-30T00:17:05.777Z,37.57
2023-01-30T00:17:37.448Z,37.40
2023-01-30T00:18:12.984Z,37.50
2023-01-30T00:18:45.094Z,36.50
2023-01-30T00:19:16.714Z,36.60
2023-01-30T00:19:50.733Z,37.37
2023-01-30T00:20:22.466Z,37.07
2023-01-30T00:21:01.177Z,36.77
2023-01-30T00:21:32.948Z,37.57
2023-01-30T00:22:04.662Z,37.20
2023-01-30T00:22:36.306Z,36.43
2023-01-30T00:23:07.968Z,36.37
2023-01-30T00:23:40.021Z,36.20
2023-01-30T00:24:12.000Z,37.37
2023-01-30T00:24:43.758Z,36.70
2023-01-30T00:25:15.686Z,37.50
2023-01-30T00:25:47.523Z,38.30
2023-01-30T00:26:19.466Z,37.97
2023-01-30T00:26:51.165Z,37.03
2023-01-30T00:27:22.836Z,35.43
2023-01-30T00:27:54.597Z,36.77
2023-01-30T00:28:26.469Z,36.40
2023-01-30T00:28:58.182Z,36.10
2023-01-30T00:29:29.813Z,36.57
2023-01-30T00:30:04.371Z,36.00
2023-01-30T00:30:36.084Z,36.50
2023-01-30T00:31:08.341Z,35.40
2023-01-30T00:31:40.039Z,35.97
2023-01-30T00:32:14.644Z,35.57
2023-01-30T00:32:46.295Z,36.73
2023-01-30T00:33:18.782Z,36.53
2023-01-30T00:33:50.434Z,36.07
2023-01-30T00:34:22.111Z,35.10
2023-01-30T00:34:53.780Z,36.33
2023-01-30T00:35:28.675Z,36.03
2023-01-30T00:36:03.680Z,36.73
2023-01-30T00:36:35.399Z,36.33
2023-01-30T00:37:08.623Z,37.63
2023-01-30T00:37:40.385Z,37.20
2023-01-30T00:38:12.315Z,36.37
2023-01-30T00:38:45.548Z,34.50
2023-01-30T00:39:19.327Z,35.90
2023-01-30T00:39:51.374Z,35.90
2023-01-30T00:40:23.059Z,35.70
2023-01-30T00:40:54.787Z,36.40
2023-01-30T00:41:46.410Z,36.37
2023-01-30T00:42:36.560Z,35.80
2023-01-30T00:43:33.994Z,35.97
2023-01-30T00:44:24.637Z,35.27
2023-01-30T00:45:14.993Z,35.80
2023-01-30T00:46:06.890Z,36.97
2023-01-30T00:46:57.089Z,35.80
2023-01-30T00:47:28.718Z,36.23
2023-01-30T00:48:02.971Z,35.60
2023-01-30T00:48:34.697Z,35.80
2023-01-30T00:49:08.933Z,35.77
2023-01-30T00:49:42.298Z,35.67
2023-01-30T00:50:16.549Z,36.47
2023-01-30T00:50:48.182Z,36.83
2023-01-30T00:51:19.848Z,35.87
2023-01-30T00:51:51.777Z,35.87
2023-01-30T00:52:23.433Z,36.90
2023-01-30T00:52:55.078Z,36.70
2023-01-30T00:53:26.788Z,35.80
2023-01-30T00:53:58.450Z,36.37
2023-01-30T00:54:30.970Z,36.27
2023-01-30T00:55:02.869Z,35.87
2023-01-30T00:55:34.547Z,35.83
2023-01-30T00:56:06.781Z,35.23
2023-01-30T00:56:39.825Z,35.63
2023-01-30T00:57:11.465Z,36.07
2023-01-30T00:57:45.153Z,36.90
2023-01-30T00:58:16.848Z,36.80
2023-01-30T00:58:48.533Z,36.40
2023-01-30T00:59:20.179Z,35.30
2023-01-30T00:59:51.858Z,35.10
2023-01-30T01:00:23.500Z,38.30
2023-01-30T01:00:56.225Z,37.37
2023-01-30T01:01:36.591Z,38.00
2023-01-30T01:02:08.309Z,38.43
2023-01-30T01:02:40.010Z,38.73
2023-01-30T01:03:11.736Z,38.30
2023-01-30T01:03:43.753Z,37.47
2023-01-30T01:04:15.434Z,37.37
2023-01-30T01:04:49.141Z,36.20
2023-01-30T01:05:20.936Z,36.80
2023-01-30T01:05:54.732Z,37.47
2023-01-30T01:06:28.805Z,36.83
2023-01-30T01:07:00.458Z,36.73
2023-01-30T01:07:34.684Z,37.33
2023-01-30T01:08:06.894Z,38.80
2023-01-30T01:08:38.631Z,38.07
2023-01-30T01:09:12.936Z,37.43
2023-01-30T01:09:44.590Z,39.13
2023-01-30T01:10:16.709Z,38.33
2023-01-30T01:10:48.491Z,37.70
2023-01-30T01:11:29.106Z,39.37
2023-01-30T01:12:00.810Z,40.33
2023-01-30T01:12:32.477Z,39.13
2023-01-30T01:13:06.483Z,38.83
2023-01-30T01:13:38.104Z,38.83
2023-01-30T01:14:09.861Z,40.07
2023-01-30T01:14:43.658Z,39.90
2023-01-30T01:15:15.768Z,39.53
2023-01-30T01:15:54.646Z,39.43
2023-01-30T01:16:27.885Z,39.23
2023-01-30T01:16:59.754Z,39.57
2023-01-30T01:17:33.450Z,39.67
2023-01-30T01:18:05.362Z,39.77
2023-01-30T01:18:37.135Z,39.57
2023-01-30T01:19:11.095Z,38.57
2023-01-30T01:19:42.754Z,38.87
2023-01-30T01:20:16.471Z,39.73
2023-01-30T01:20:48.216Z,37.93
2023-01-30T01:21:21.651Z,38.53
2023-01-30T01:21:53.345Z,37.73
2023-01-30T01:22:27.043Z,37.43
2023-01-30T01:22:58.785Z,37.97
2023-01-30T01:23:30.425Z,38.17
2023-01-30T01:24:02.148Z,38.50
2023-01-30T01:24:35.725Z,38.30
2023-01-30T01:25:10.073Z,38.93
2023-01-30T01:25:41.740Z,39.73
2023-01-30T01:26:13.404Z,37.80
2023-01-30T01:26:45.551Z,39.23
2023-01-30T01:27:17.886Z,38.10
2023-01-30T01:27:50.260Z,39.87
2023-01-30T01:28:22.320Z,38.47
2023-01-30T01:28:58.130Z,39.17
2023-01-30T01:29:31.854Z,39.47
2023-01-30T01:30:04.493Z,39.73
2023-01-30T01:30:36.174Z,40.70
2023-01-30T01:31:13.281Z,40.07
2023-01-30T01:31:45.567Z,38.63
2023-01-30T01:32:17.336Z,39.10
2023-01-30T01:32:49.043Z,39.20
2023-01-30T01:33:20.724Z,38.63
2023-01-30T01:33:52.437Z,39.13
2023-01-30T01:34:24.105Z,38.90
2023-01-30T01:34:55.762Z,38.07
2023-01-30T01:35:27.409Z,38.90
2023-01-30T01:35:59.036Z,38.13
2023-01-30T01:36:53.224Z,37.30
2023-01-30T01:37:22.477Z,37.03
2023-01-30T01:37:54.717Z,36.40
2023-01-30T01:38:26.380Z,35.97
2023-01-30T01:38:58.124Z,36.33
2023-01-30T01:39:49.723Z,37.03
2023-01-30T01:40:41.060Z,36.03
2023-01-30T01:41:14.373Z,35.87
2023-01-30T01:41:46.015Z,37.20
2023-01-30T01:42:18.463Z,37.50
2023-01-30T01:42:51.089Z,36.70
2023-01-30T01:43:25.246Z,36.47
2023-01-30T01:44:05.715Z,36.33
2023-01-30T01:45:11.552Z,36.87
2023-01-30T01:45:44.577Z,37.83
2023-01-30T01:46:23.654Z,40.27
2023-01-30T01:47:00.301Z,40.87
2023-01-30T01:47:38.033Z,40.27
2023-01-30T01:48:19.044Z,40.03
2023-01-30T01:49:00.236Z,39.93
2023-01-30T01:49:37.587Z,39.73
2023-01-30T01:50:31.123Z,40.63
2023-01-30T01:51:07.001Z,41.60
2023-01-30T01:51:47.450Z,41.83
2023-01-30T01:52:19.293Z,41.90
2023-01-30T01:52:59.228Z,40.20
2023-01-30T01:53:37.525Z,40.37
2023-01-30T01:54:16.977Z,38.83
2023-01-30T01:54:57.116Z,39.63
2023-01-30T01:55:33.985Z,39.97
2023-01-30T01:56:07.634Z,40.37
2023-01-30T01:56:43.918Z,40.00
2023-01-30T01:57:27.898Z,40.33
2023-01-30T01:58:13.002Z,39.53
2023-01-30T01:59:05.288Z,39.97
2023-01-30T01:59:50.274Z,39.83
2023-01-30T02:00:25.066Z,39.60
2023-01-30T02:00:59.581Z,38.23
2023-01-30T02:01:31.889Z,38.23
2023-01-30T02:02:09.268Z,40.00
2023-01-30T02:02:45.242Z,39.33
2023-01-30T02:03:23.560Z,40.17
2023-01-30T02:04:01.990Z,40.40
2023-01-30T02:04:57.726Z,40.13
2023-01-30T02:05:35.099Z,38.70
2023-01-30T02:06:07.523Z,39.73
2023-01-30T02:06:42.131Z,40.23
2023-01-30T02:07:17.597Z,38.53
2023-01-30T02:08:11.441Z,39.83
2023-01-30T02:08:57.383Z,39.20
2023-01-30T02:09:36.223Z,41.00
2023-01-30T02:10:13.789Z,38.37
2023-01-30T02:11:10.179Z,37.77
2023-01-30T02:11:52.702Z,38.97
2023-01-30T02:12:25.641Z,38.10
2023-01-30T02:12:57.330Z,37.73
2023-01-30T02:13:29.518Z,38.07
2023-01-30T02:14:03.105Z,40.20
2023-01-30T02:14:37.379Z,40.20
2023-01-30T02:15:09.488Z,40.33
2023-01-30T02:15:41.538Z,40.03
2023-01-30T02:16:14.028Z,38.60
2023-01-30T02:16:47.333Z,38.80
2023-01-30T02:17:20.025Z,39.03
2023-01-30T02:17:54.005Z,39.70
2023-01-30T02:18:27.397Z,39.17
2023-01-30T02:19:01.645Z,39.37
2023-01-30T02:20:03.430Z,39.17
2023-01-30T02:20:37.947Z,39.27
2023-01-30T02:21:59.414Z,38.57
2023-01-30T02:23:24.088Z,38.50
2023-01-30T02:24:16.098Z,38.03
2023-01-30T02:24:53.210Z,39.20
2023-01-30T02:26:06.107Z,39.77
2023-01-30T02:26:52.400Z,38.53
2023-01-30T02:28:18.712Z,39.40
2023-01-30T02:29:13.594Z,39.73
2023-01-30T02:30:03.700Z,39.57
2023-01-30T02:30:50.549Z,40.40
2023-01-30T02:31:25.650Z,39.13
2023-01-30T02:32:16.088Z,38.07
2023-01-30T02:33:01.335Z,38.03
2023-01-30T02:33:52.044Z,39.60
2023-01-30T02:34:31.845Z,39.43
2023-01-30T02:35:06.214Z,38.77
2023-01-30T02:35:56.156Z,39.40
2023-01-30T02:36:38.075Z,38.50
2023-01-30T02:37:15.669Z,38.10
2023-01-30T02:38:24.559Z,39.23
2023-01-30T02:39:19.249Z,38.87
2023-01-30T02:40:08.388Z,38.87
2023-01-30T02:40:52.094Z,39.37
2023-01-30T02:41:45.463Z,38.97
2023-01-30T02:42:40.357Z,37.90
2023-01-30T02:43:25.383Z,39.40
2023-01-30T02:44:05.834Z,38.90
2023-01-30T02:44:43.251Z,39.10
2023-01-30T02:45:20.894Z,38.80
2023-01-30T02:46:07.672Z,38.47
2023-01-30T02:46:58.109Z,40.33
2023-01-30T02:47:41.873Z,39.17
2023-01-30T02:48:21.724Z,41.07
2023-01-30T02:49:09.077Z,41.93
2023-01-30T02:49:55.962Z,41.10
2023-01-30T02:51:07.745Z,41.17
2023-01-30T02:51:43.156Z,40.60
2023-01-30T02:52:17.488Z,41.33
2023-01-30T02:52:50.193Z,40.30
2023-01-30T02:53:22.031Z,40.97
2023-01-30T02:53:54.602Z,40.13
2023-01-30T02:54:29.191Z,40.73
2023-01-30T02:55:02.662Z,41.03
2023-01-30T02:55:35.690Z,40.63
2023-01-30T02:56:07.602Z,40.87
2023-01-30T02:56:46.920Z,40.70
2023-01-30T02:57:24.285Z,41.07
2023-01-30T02:57:56.308Z,39.43
2023-01-30T02:58:37.199Z,39.60
2023-01-30T02:59:09.246Z,39.00
2023-01-30T02:59:47.245Z,38.40
2023-01-30T03:00:27.771Z,39.07
2023-01-30T03:01:20.485Z,37.80
2023-01-30T03:02:19.432Z,39.30
2023-01-30T03:03:07.508Z,37.57
2023-01-30T03:03:51.038Z,36.27
2023-01-30T03:04:31.118Z,38.20
2023-01-30T03:05:28.974Z,37.07
2023-01-30T03:06:09.319Z,37.53
2023-01-30T03:07:01.507Z,37.77
2023-01-30T03:07:46.530Z,37.97
2023-01-30T03:08:36.899Z,36.67
2023-01-30T03:09:11.165Z,36.50
2023-01-30T03:10:13.122Z,36.63
2023-01-30T03:10:47.493Z,35.47
2023-01-30T03:11:24.470Z,36.43
2023-01-30T03:12:16.751Z,37.10
2023-01-30T03:13:20.910Z,36.50
2023-01-30T03:14:04.157Z,36.13
2023-01-30T03:14:48.312Z,36.57
2023-01-30T03:16:09.408Z,36.77
2023-01-30T03:16:44.648Z,35.93
2023-01-30T03:17:20.867Z,36.40
2023-01-30T03:17:56.390Z,36.37
2023-01-30T03:18:31.178Z,36.20
2023-01-30T03:19:06.022Z,37.13
2023-01-30T03:19:38.380Z,35.53
2023-01-30T03:20:10.895Z,34.47
2023-01-30T03:20:42.657Z,35.57
2023-01-30T03:21:21.640Z,35.57
2023-01-30T03:21:53.272Z,35.77
2023-01-30T03:22:24.956Z,35.80
2023-01-30T03:22:56.631Z,35.50
2023-01-30T03:23:28.314Z,35.87
2023-01-30T03:23:59.970Z,36.07
2023-01-30T03:24:31.670Z,36.27
2023-01-30T03:25:03.440Z,35.27
2023-01-30T03:25:38.255Z,35.13
2023-01-30T03:26:18.375Z,35.77
2023-01-30T03:27:05.828Z,35.83
2023-01-30T03:27:39.085Z,37.07
2023-01-30T03:28:12.783Z,36.17
2023-01-30T03:28:47.398Z,36.03
2023-01-30T03:29:19.043Z,36.07
2023-01-30T03:29:54.822Z,36.60
2023-01-30T03:30:26.809Z,35.67
2023-01-30T03:30:58.676Z,35.50
2023-01-30T03:31:30.583Z,34.93
2023-01-30T03:32:02.454Z,35.93
2023-01-30T03:32:34.105Z,36.13
2023-01-30T03:33:07.851Z,35.37
2023-01-30T03:33:41.901Z,35.47
2023-01-30T03:34:13.593Z,36.40
2023-01-30T03:34:45.236Z,35.60
2023-01-30T03:35:18.163Z,35.43
2023-01-30T03:35:52.286Z,34.43
2023-01-30T03:36:24.043Z,35.50
2023-01-30T03:36:57.566Z,35.13
2023-01-30T03:37:29.356Z,35.10
2023-01-30T03:38:03.674Z,35.63
2023-01-30T03:38:36.194Z,34.47
2023-01-30T03:39:08.453Z,34.60
2023-01-30T03:39:40.295Z,35.17
2023-01-30T03:40:14.515Z,35.87
2023-01-30T03:40:46.586Z,36.43
2023-01-30T03:41:18.356Z,35.90
2023-01-30T03:41:50.436Z,34.73
2023-01-30T03:42:22.338Z,35.37
2023-01-30T03:42:53.969Z,35.53
2023-01-30T03:43:25.638Z,35.23
2023-01-30T03:43:59.972Z,35.03
2023-01-30T03:44:31.662Z,36.73
2023-01-30T03:45:03.565Z,35.90
2023-01-30T03:45:35.320Z,36.13
2023-01-30T03:46:07.039Z,35.20
2023-01-30T03:46:38.741Z,35.80
2023-01-30T03:47:10.417Z,35.80
2023-01-30T03:47:42.043Z,36.50
2023-01-30T03:48:15.762Z,36.40
2023-01-30T03:48:47.417Z,36.63
2023-01-30T03:49:19.097Z,36.93
2023-01-30T03:49:50.760Z,34.93
2023-01-30T03:50:22.439Z,35.07
2023-01-30T03:50:54.473Z,34.47
2023-01-30T03:51:26.182Z,35.77
2023-01-30T03:51:57.839Z,37.50
2023-01-30T03:52:29.478Z,35.90
2023-01-30T03:53:03.576Z,36.97
2023-01-30T03:53:37.265Z,36.53
2023-01-30T03:54:16.329Z,35.97
2023-01-30T03:54:48.160Z,35.53
2023-01-30T03:55:20.054Z,35.67
2023-01-30T03:55:53.686Z,35.93
2023-01-30T03:56:25.522Z,36.07
2023-01-30T03:56:58.637Z,36.30
2023-01-30T03:57:30.473Z,35.57
2023-01-30T03:58:02.130Z,35.40
2023-01-30T03:58:33.795Z,36.47
2023-01-30T03:59:05.409Z,35.67
2023-01-30T03:59:37.062Z,35.83
2023-01-30T04:00:09.605Z,36.23
2023-01-30T04:00:41.253Z,36.50
2023-01-30T04:01:14.977Z,36.63
2023-01-30T04:01:46.651Z,35.63
2023-01-30T04:02:23.074Z,36.17
2023-01-30T04:02:55.273Z,36.00
2023-01-30T04:03:28.180Z,34.40
2023-01-30T04:03:59.925Z,34.70
2023-01-30T04:04:34.519Z,35.73
2023-01-30T04:05:06.578Z,35.87
2023-01-30T04:05:40.831Z,35.53
2023-01-30T04:06:12.478Z,35.13
2023-01-30T04:06:44.134Z,37.37
2023-01-30T04:07:17.154Z,37.07
2023-01-30T04:07:49.446Z,35.90
2023-01-30T04:08:21.185Z,35.90
2023-01-30T04:08:55.655Z,35.83
2023-01-30T04:09:27.384Z,35.37
2023-01-30T04:09:59.032Z,36.33
2023-01-30T04:10:30.679Z,35.87
2023-01-30T04:11:02.359Z,36.73
2023-01-30T04:11:34.011Z,36.93
2023-01-30T04:12:05.938Z,36.47
2023-01-30T04:12:40.178Z,36.10
2023-01-30T04:13:11.830Z,35.70
2023-01-30T04:13:43.458Z,35.87
2023-01-30T04:14:17.719Z,35.13
2023-01-30T04:14:49.367Z,36.40
2023-01-30T04:15:25.103Z,37.63
2023-01-30T04:16:20.715Z,36.57
2023-01-30T04:16:52.433Z,35.93
2023-01-30T04:17:26.419Z,35.10
2023-01-30T04:17:58.164Z,36.80
2023-01-30T04:18:29.821Z,36.53
2023-01-30T04:19:04.267Z,36.23
2023-01-30T04:19:35.907Z,37.90
2023-01-30T04:20:12.106Z,38.07
2023-01-30T04:20:44.898Z,37.50
2023-01-30T04:21:17.008Z,37.03
2023-01-30T04:21:48.660Z,39.50
2023-01-30T04:22:20.319Z,38.60
2023-01-30T04:22:54.290Z,38.07
2023-01-30T04:23:25.938Z,39.27
2023-01-30T04:24:01.906Z,39.97
2023-01-30T04:24:35.123Z,40.50
2023-01-30T04:25:07.008Z,41.27
2023-01-30T04:25:38.644Z,40.77
2023-01-30T04:26:14.700Z,39.33
2023-01-30T04:26:47.937Z,38.97
2023-01-30T04:27:22.225Z,39.03
2023-01-30T04:27:53.857Z,37.20
2023-01-30T04:28:25.994Z,37.63
2023-01-30T04:28:59.159Z,39.30
2023-01-30T04:29:30.801Z,38.73
2023-01-30T04:30:02.531Z,37.60
2023-01-30T04:30:36.297Z,37.97
2023-01-30T04:31:08.172Z,37.77
2023-01-30T04:31:39.895Z,38.53
2023-01-30T04:32:11.594Z,38.17
2023-01-30T04:32:52.880Z,38.00
2023-01-30T04:33:33.233Z,37.13
2023-01-30T04:34:07.556Z,37.43
2023-01-30T04:34:40.721Z,37.77
2023-01-30T04:35:14.377Z,37.43
2023-01-30T04:35:57.329Z,37.23
2023-01-30T04:36:32.099Z,35.67
2023-01-30T04:37:03.803Z,36.67
2023-01-30T04:37:35.575Z,36.77
2023-01-30T04:38:07.278Z,37.60
2023-01-30T04:38:39.542Z,37.90
2023-01-30T04:39:11.202Z,38.83
2023-01-30T04:39:42.874Z,38.83
2023-01-30T04:40:17.179Z,38.03
2023-01-30T04:40:51.820Z,38.67
2023-01-30T04:41:25.820Z,40.83
2023-01-30T04:41:57.470Z,41.67
2023-01-30T04:42:29.121Z,41.37
2023-01-30T04:43:00.779Z,44.77
2023-01-30T04:43:32.482Z,46.17
2023-01-30T04:44:04.240Z,46.00
2023-01-30T04:44:35.859Z,44.20
2023-01-30T04:45:08.042Z,43.17
2023-01-30T04:45:43.522Z,43.57
2023-01-30T04:46:15.223Z,43.73
2023-01-30T04:46:46.953Z,43.33
2023-01-30T04:47:18.654Z,44.20
2023-01-30T04:47:52.694Z,43.00
2023-01-30T04:48:29.403Z,42.40
2023-01-30T04:49:01.040Z,43.40
2023-01-30T04:49:32.685Z,46.23
2023-01-30T04:50:04.611Z,46.63
2023-01-30T04:50:36.269Z,45.50
2023-01-30T04:51:10.849Z,44.70
2023-01-30T04:51:42.502Z,47.20
2023-01-30T04:52:14.157Z,47.53
2023-01-30T04:52:45.831Z,47.40
2023-01-30T04:53:18.424Z,47.40
2023-01-30T04:53:50.117Z,47.73
2023-01-30T04:54:21.926Z,49.60
2023-01-30T04:55:00.925Z,51.27
2023-01-30T04:55:32.964Z,50.60
2023-01-30T04:56:05.082Z,49.77
2023-01-30T04:56:36.749Z,51.53
2023-01-30T04:57:08.448Z,51.27
2023-01-30T04:57:40.092Z,50.37
2023-01-30T04:58:13.360Z,47.93
2023-01-30T04:58:45.058Z,44.70
2023-01-30T04:59:16.787Z,45.17
2023-01-30T04:59:48.544Z,43.93
2023-01-30T05:00:20.323Z,43.60
2023-01-30T05:00:52.016Z,42.83
2023-01-30T05:01:23.722Z,42.23
2023-01-30T05:01:55.626Z,42.70
2023-01-30T05:02:27.330Z,41.90
2023-01-30T05:02:59.361Z,41.47
2023-01-30T05:03:30.992Z,40.50
2023-01-30T05:04:03.794Z,39.33
2023-01-30T05:04:35.517Z,39.43
2023-01-30T05:05:07.434Z,37.90
2023-01-30T05:05:39.171Z,39.10
2023-01-30T05:06:10.909Z,39.23
2023-01-30T05:06:42.628Z,38.83
2023-01-30T05:07:14.260Z,40.10
2023-01-30T05:07:54.922Z,39.13
2023-01-30T05:08:26.572Z,38.23
2023-01-30T05:08:58.721Z,39.13
2023-01-30T05:09:30.347Z,39.53
2023-01-30T05:10:02.998Z,38.40
2023-01-30T05:10:37.224Z,37.50
2023-01-30T05:11:08.907Z,38.53
2023-01-30T05:11:40.579Z,38.93
2023-01-30T05:12:14.672Z,37.73
2023-01-30T05:12:49.087Z,37.23
2023-01-30T05:13:23.936Z,37.40
2023-01-30T05:13:55.637Z,39.27
2023-01-30T05:14:27.268Z,39.97
2023-01-30T05:14:58.924Z,39.97
2023-01-30T05:15:32.680Z,39.30
2023-01-30T05:16:04.651Z,39.73
2023-01-30T05:16:36.287Z,40.70
2023-01-30T05:17:09.618Z,39.53
2023-01-30T05:17:44.719Z,40.43
2023-01-30T05:18:16.453Z,41.73
2023-01-30T05:18:48.675Z,40.90
2023-01-30T05:19:20.309Z,41.93
2023-01-30T05:19:54.294Z,42.90
2023-01-30T05:20:25.980Z,43.17
2023-01-30T05:21:13.446Z,43.67
2023-01-30T05:21:46.619Z,47.07
2023-01-30T05:22:18.271Z,45.50
2023-01-30T05:22:49.992Z,47.63
2023-01-30T05:23:21.632Z,48.10
2023-01-30T05:23:53.819Z,49.77
2023-01-30T05:24:26.922Z,55.07
2023-01-30T05:24:58.586Z,55.10
2023-01-30T05:25:37.430Z,61.47
2023-01-30T05:26:10.280Z,65.10
2023-01-30T05:26:41.952Z,65.93
2023-01-30T05:27:13.595Z,69.77
2023-01-30T05:27:45.240Z,75.00
2023-01-30T05:28:16.900Z,74.83
2023-01-30T05:28:56.373Z,70.87
2023-01-30T05:29:28.069Z,68.80
2023-01-30T05:29:59.716Z,69.73
2023-01-30T05:30:31.429Z,67.87
2023-01-30T05:31:09.243Z,67.67
2023-01-30T05:31:41.057Z,63.83
2023-01-30T05:32:14.398Z,62.57
2023-01-30T05:32:53.516Z,61.73
2023-01-30T05:33:27.222Z,59.17
2023-01-30T05:33:58.967Z,57.40
2023-01-30T05:34:30.687Z,56.90
2023-01-30T05:35:02.383Z,56.33
2023-01-30T05:35:36.102Z,54.20
2023-01-30T05:36:08.299Z,52.53
2023-01-30T05:36:40.112Z,49.20
2023-01-30T05:37:12.557Z,45.67
2023-01-30T05:37:44.245Z,44.73
2023-01-30T05:38:18.568Z,43.53
2023-01-30T05:38:52.176Z,41.33
2023-01-30T05:39:23.904Z,39.07
2023-01-30T05:39:55.556Z,38.50
2023-01-30T05:40:35.483Z,37.90
2023-01-30T05:41:08.424Z,37.53
2023-01-30T05:41:40.283Z,37.97
2023-01-30T05:42:15.131Z,36.63
2023-01-30T05:42:46.806Z,36.23
2023-01-30T05:43:18.502Z,34.93
2023-01-30T05:43:51.080Z,35.97
2023-01-30T05:44:22.792Z,35.90
2023-01-30T05:44:54.479Z,38.17
2023-01-30T05:45:26.136Z,35.47
2023-01-30T05:45:59.647Z,36.57
2023-01-30T05:46:31.316Z,36.43
2023-01-30T05:47:03.003Z,36.87
2023-01-30T05:47:36.723Z,37.83
2023-01-30T05:48:08.368Z,37.53
2023-01-30T05:48:42.382Z,34.63
2023-01-30T05:49:14.282Z,32.97
2023-01-30T05:49:47.154Z,33.87
2023-01-30T05:50:18.873Z,37.13
2023-01-30T05:51:41.419Z,41.93
2023-01-30T05:52:13.057Z,45.33
2023-01-30T05:52:47.298Z,47.33
2023-01-30T05:53:23.288Z,46.27
2023-01-30T05:53:57.304Z,43.90
2023-01-30T05:54:29.005Z,45.67
2023-01-30T05:55:00.678Z,43.57
2023-01-30T05:55:32.330Z,41.20
2023-01-30T05:56:08.112Z,38.37
2023-01-30T05:56:39.955Z,36.83
2023-01-30T05:57:12.720Z,35.90
2023-01-30T05:57:44.384Z,34.63
2023-01-30T05:58:16.056Z,34.10
2023-01-30T05:58:55.050Z,34.90
2023-01-30T05:59:29.373Z,35.63
2023-01-30T06:00:01.008Z,36.50
2023-01-30T06:00:32.701Z,37.03
2023-01-30T06:01:12.538Z,36.67
2023-01-30T06:01:47.085Z,35.37
2023-01-30T06:02:18.714Z,34.77
2023-01-30T06:02:50.400Z,36.17
2023-01-30T06:03:24.188Z,37.63
2023-01-30T06:03:58.680Z,36.40
2023-01-30T06:04:30.361Z,37.93
2023-01-30T06:05:05.970Z,38.00
2023-01-30T06:05:38.942Z,38.33
2023-01-30T06:06:12.666Z,38.30
2023-01-30T06:06:45.689Z,39.67
2023-01-30T06:07:17.337Z,38.63
2023-01-30T06:07:49.024Z,39.30
2023-01-30T06:08:22.812Z,39.50
2023-01-30T06:08:57.575Z,39.83
2023-01-30T06:09:31.753Z,40.30
2023-01-30T06:10:03.612Z,42.40
2023-01-30T06:10:38.427Z,41.03
2023-01-30T06:11:13.831Z,39.17
2023-01-30T06:11:45.606Z,39.47
2023-01-30T06:12:18.653Z,37.77
2023-01-30T06:12:50.256Z,37.63
2023-01-30T06:13:21.924Z,40.60
2023-01-30T06:13:53.748Z,41.07
2023-01-30T06:14:25.424Z,41.77
2023-01-30T06:14:57.146Z,42.23
2023-01-30T06:15:31.603Z,42.13
2023-01-30T06:16:03.349Z,42.97
2023-01-30T06:16:36.991Z,41.87
2023-01-30T06:17:08.725Z,41.97
2023-01-30T06:17:46.321Z,43.33
2023-01-30T06:18:20.177Z,43.97
2023-01-30T06:18:51.888Z,43.53
2023-01-30T06:19:25.887Z,44.33
2023-01-30T06:19:57.537Z,44.53
2023-01-30T06:20:29.177Z,45.30
2023-01-30T06:21:03.698Z,46.07
2023-01-30T06:21:35.388Z,45.37
2023-01-30T06:22:08.157Z,42.87
2023-01-30T06:22:39.813Z,41.70
2023-01-30T06:23:11.446Z,42.23
2023-01-30T06:23:43.748Z,41.20
2023-01-30T06:24:15.550Z,41.13
2023-01-30T06:24:47.252Z,40.97
2023-01-30T06:25:26.074Z,41.70
2023-01-30T06:26:03.272Z,40.50
2023-01-30T06:26:37.795Z,40.90
2023-01-30T06:27:09.477Z,41.20
2023-01-30T06:27:43.561Z,39.77
2023-01-30T06:28:16.308Z,40.03
2023-01-30T06:28:48.477Z,39.50
2023-01-30T06:29:20.131Z,39.83
2023-01-30T06:29:51.761Z,38.43
2023-01-30T06:30:23.491Z,38.97
2023-01-30T06:30:55.291Z,40.13
2023-01-30T06:31:30.130Z,40.10
2023-01-30T06:32:01.921Z,40.70
2023-01-30T06:32:33.596Z,40.40
2023-01-30T06:33:05.728Z,41.33
2023-01-30T06:33:37.558Z,39.83
2023-01-30T06:34:12.998Z,39.97
2023-01-30T06:34:44.639Z,40.40
2023-01-30T06:35:16.767Z,40.90
2023-01-30T06:35:51.305Z,40.70
2023-01-30T06:36:22.912Z,41.43
2023-01-30T06:36:54.613Z,41.20
2023-01-30T06:37:26.263Z,40.43
2023-01-30T06:37:57.917Z,38.47
2023-01-30T06:38:29.663Z,39.20
2023-01-30T06:39:03.664Z,38.23
2023-01-30T06:39:35.392Z,39.00
2023-01-30T06:40:07.406Z,37.83
2023-01-30T06:40:39.819Z,38.83
2023-01-30T06:41:11.557Z,38.80
2023-01-30T06:41:43.173Z,38.23
2023-01-30T06:42:14.894Z,37.73
2023-01-30T06:42:48.024Z,37.00
2023-01-30T06:43:21.507Z,35.47
2023-01-30T06:43:53.177Z,36.20
2023-01-30T06:44:24.825Z,37.40
2023-01-30T06:44:56.483Z,37.10
2023-01-30T06:45:28.199Z,37.07
2023-01-30T06:46:02.406Z,36.57
2023-01-30T06:46:34.083Z,36.83
2023-01-30T06:47:05.743Z,37.23
2023-01-30T06:47:52.446Z,38.30
2023-01-30T06:48:24.098Z,38.50
2023-01-30T06:48:55.940Z,38.70
2023-01-30T06:49:27.610Z,39.23
2023-01-30T06:49:59.251Z,40.23
2023-01-30T06:50:32.153Z,42.07
2023-01-30T06:51:03.850Z,41.70
2023-01-30T06:51:37.574Z,41.80
2023-01-30T06:52:09.912Z,42.47
2023-01-30T06:52:48.379Z,43.93
2023-01-30T06:53:20.215Z,42.60
2023-01-30T06:53:53.572Z,42.50
2023-01-30T06:54:25.243Z,40.93
2023-01-30T06:54:56.884Z,41.33
2023-01-30T06:55:28.704Z,41.43
2023-01-30T06:56:03.893Z,41.57
2023-01-30T06:56:35.549Z,40.70
2023-01-30T06:57:09.596Z,42.50
2023-01-30T06:57:44.605Z,42.13
2023-01-30T06:58:16.244Z,41.60
2023-01-30T06:58:47.898Z,41.63
2023-01-30T06:59:19.558Z,41.03
2023-01-30T06:59:51.191Z,40.17
2023-01-30T07:00:24.622Z,40.77
2023-01-30T07:00:56.692Z,39.93
2023-01-30T07:01:29.076Z,40.37
2023-01-30T07:02:00.836Z,40.63
2023-01-30T07:02:35.301Z,40.83
2023-01-30T07:03:14.788Z,42.30
2023-01-30T07:03:47.411Z,45.73
2023-01-30T07:04:23.652Z,47.50
2023-01-30T07:04:56.831Z,52.27
2023-01-30T07:05:29.056Z,53.67
2023-01-30T07:06:00.780Z,51.07
2023-01-30T07:06:32.580Z,49.60
2023-01-30T07:07:05.748Z,50.13
2023-01-30T07:07:43.069Z,49.17
2023-01-30T07:08:16.284Z,50.20
2023-01-30T07:08:49.114Z,51.00
2023-01-30T07:09:20.797Z,52.53
2023-01-30T07:10:07.019Z,53.73
2023-01-30T07:10:40.887Z,52.27
2023-01-30T07:11:12.613Z,50.43
2023-01-30T07:11:44.273Z,51.27
2023-01-30T07:12:16.067Z,51.20
2023-01-30T07:12:48.296Z,50.77
2023-01-30T07:13:20.134Z,49.93
2023-01-30T07:13:51.970Z,49.30
2023-01-30T07:14:25.936Z,49.87
2023-01-30T07:14:57.982Z,49.77
2023-01-30T07:15:30.548Z,50.43
2023-01-30T07:16:02.237Z,49.63
2023-01-30T07:16:39.464Z,49.83
2023-01-30T07:17:11.158Z,50.23
2023-01-30T07:17:43.320Z,50.90
2023-01-30T07:18:17.694Z,52.37
2023-01-30T07:18:49.371Z,57.67
2023-01-30T07:19:21.029Z,57.93
2023-01-30T07:19:55.004Z,57.63
2023-01-30T07:20:26.834Z,59.43
2023-01-30T07:20:58.469Z,59.20
2023-01-30T07:21:30.158Z,60.97
2023-01-30T07:22:03.268Z,61.57
2023-01-30T07:22:35.198Z,63.23
2023-01-30T07:23:12.828Z,60.23
2023-01-30T07:23:46.631Z,57.10
2023-01-30T07:24:18.297Z,57.40
2023-01-30T07:24:50.046Z,56.63
2023-01-30T07:25:24.191Z,55.20
2023-01-30T07:25:55.887Z,53.40
2023-01-30T07:26:30.834Z,52.07
2023-01-30T07:27:02.525Z,51.27
2023-01-30T07:27:41.792Z,53.03
2023-01-30T07:28:13.478Z,53.57
2023-01-30T07:28:47.183Z,55.27
2023-01-30T07:29:20.922Z,58.90
2023-01-30T07:29:52.630Z,60.57
2023-01-30T07:30:26.658Z,59.90
2023-01-30T07:31:02.041Z,60.57